sensor_id;sensor_type;location;lat;lon;timestamp;P1;durP1;ratioP1;P2;durP2;ratioP2
71108;SDS011;59614;51.012;-1.648;2023-02-02T00:00:41;21.25;;;4.75;;
71108;SDS011;59614;51.012;-1.648;2023-02-02T00:03:07;19.02;;;4.65;;
71108;SDS011;59614;51.012;-1.648;2023-02-02T00:05:34;26.85;;;4.47;;
71108;SDS011;59614;51.012;-1.648;2023-02-02T00:08:00;18.33;;;3.40;;
71108;SDS011;59614;51.012;-1.648;2023-02-02T00:10:25;27.95;;;5.90;;
71108;SDS011;59614;51.012;-1.648;2023-02-02T00:12:51;24.90;;;5.60;;
71108;SDS011;59614;51.012;-1.648;2023-02-02T00:15:16;30.52;;;5.30;;
71108;SDS011;59614;51.012;-1.648;2023-02-02T00:17:41;25.42;;;5.10;;
71108;SDS011;59614;51.012;-1.648;2023-02-02T00:20:07;22.42;;;4.38;;
71108;SDS011;59614;51.012;-1.648;2023-02-02T00:22:33;31.60;;;3.97;;
71108;SDS011;59614;51.012;-1.648;2023-02-02T00:24:59;23.90;;;4.88;;
71108;SDS011;59614;51.012;-1.648;2023-02-02T00:27:24;19.42;;;3.90;;
71108;SDS011;59614;51.012;-1.648;2023-02-02T00:29:50;25.23;;;4.68;;
71108;SDS011;59614;51.012;-1.648;2023-02-02T00:32:18;23.42;;;4.80;;
71108;SDS011;59614;51.012;-1.648;2023-02-02T00:34:44;24.25;;;4.82;;
71108;SDS011;59614;51.012;-1.648;2023-02-02T00:37:09;17.33;;;5.10;;
71108;SDS011;59614;51.012;-1.648;2023-02-02T00:39:35;24.35;;;5.95;;
71108;SDS011;59614;51.012;-1.648;2023-02-02T00:42:00;24.55;;;4.68;;
71108;SDS011;59614;51.012;-1.648;2023-02-02T00:44:26;21.83;;;4.90;;
71108;SDS011;59614;51.012;-1.648;2023-02-02T00:47:10;31.42;;;4.80;;
71108;SDS011;59614;51.012;-1.648;2023-02-02T00:49:36;21.15;;;5.93;;
71108;SDS011;59614;51.012;-1.648;2023-02-02T00:52:01;20.10;;;4.00;;
71108;SDS011;59614;51.012;-1.648;2023-02-02T00:54:27;26.88;;;5.20;;
71108;SDS011;59614;51.012;-1.648;2023-02-02T00:56:52;31.95;;;6.28;;
71108;SDS011;59614;51.012;-1.648;2023-02-02T00:59:17;30.77;;;8.23;;
71108;SDS011;59614;51.012;-1.648;2023-02-02T01:01:43;19.25;;;3.90;;
71108;SDS011;59614;51.012;-1.648;2023-02-02T01:04:08;18.42;;;5.20;;
71108;SDS011;59614;51.012;-1.648;2023-02-02T01:06:34;17.63;;;3.33;;
71108;SDS011;59614;51.012;-1.648;2023-02-02T01:08:59;17.17;;;3.13;;
71108;SDS011;59614;51.012;-1.648;2023-02-02T01:11:25;23.70;;;3.72;;
71108;SDS011;59614;51.012;-1.648;2023-02-02T01:13:50;31.90;;;3.78;;
71108;SDS011;59614;51.012;-1.648;2023-02-02T01:16:16;19.45;;;3.95;;
71108;SDS011;59614;51.012;-1.648;2023-02-02T01:18:42;14.70;;;2.65;;
71108;SDS011;59614;51.012;-1.648;2023-02-02T01:21:08;15.43;;;2.80;;
71108;SDS011;59614;51.012;-1.648;2023-02-02T01:23:36;24.40;;;2.85;;
71108;SDS011;59614;51.012;-1.648;2023-02-02T01:26:03;20.42;;;3.15;;
71108;SDS011;59614;51.012;-1.648;2023-02-02T01:30:56;13.13;;;2.47;;
71108;SDS011;59614;51.012;-1.648;2023-02-02T01:33:22;11.45;;;2.47;;
71108;SDS011;59614;51.012;-1.648;2023-02-02T01:35:49;16.85;;;2.83;;
71108;SDS011;59614;51.012;-1.648;2023-02-02T01:38:18;17.92;;;3.72;;
71108;SDS011;59614;51.012;-1.648;2023-02-02T01:40:54;14.10;;;2.50;;
71108;SDS011;59614;51.012;-1.648;2023-02-02T01:45:46;14.30;;;3.58;;
71108;SDS011;59614;51.012;-1.648;2023-02-02T01:48:12;16.20;;;2.75;;
71108;SDS011;59614;51.012;-1.648;2023-02-02T01:50:38;19.48;;;2.97;;
71108;SDS011;59614;51.012;-1.648;2023-02-02T01:53:04;13.77;;;2.53;;
71108;SDS011;59614;51.012;-1.648;2023-02-02T01:55:31;9.48;;;2.28;;
71108;SDS011;59614;51.012;-1.648;2023-02-02T01:58:10;15.02;;;2.75;;
71108;SDS011;59614;51.012;-1.648;2023-02-02T02:00:41;19.17;;;2.50;;
71108;SDS011;59614;51.012;-1.648;2023-02-02T02:03:10;16.52;;;3.20;;
71108;SDS011;59614;51.012;-1.648;2023-02-02T02:08:27;13.35;;;2.60;;
71108;SDS011;59614;51.012;-1.648;2023-02-02T02:10:55;12.52;;;2.38;;
71108;SDS011;59614;51.012;-1.648;2023-02-02T02:13:22;8.52;;;2.00;;
71108;SDS011;59614;51.012;-1.648;2023-02-02T02:16:53;18.48;;;2.55;;
71108;SDS011;59614;51.012;-1.648;2023-02-02T02:19:14;14.35;;;2.58;;
71108;SDS011;59614;51.012;-1.648;2023-02-02T02:30:59;11.82;;;2.80;;
71108;SDS011;59614;51.012;-1.648;2023-02-02T02:36:49;11.07;;;2.33;;
71108;SDS011;59614;51.012;-1.648;2023-02-02T02:42:27;9.30;;;2.33;;
71108;SDS011;59614;51.012;-1.648;2023-02-02T02:44:58;9.90;;;2.00;;
71108;SDS011;59614;51.012;-1.648;2023-02-02T02:47:26;7.65;;;1.65;;
71108;SDS011;59614;51.012;-1.648;2023-02-02T02:49:54;13.10;;;2.85;;
71108;SDS011;59614;51.012;-1.648;2023-02-02T02:52:19;12.63;;;2.20;;
71108;SDS011;59614;51.012;-1.648;2023-02-02T02:54:49;8.70;;;2.20;;
71108;SDS011;59614;51.012;-1.648;2023-02-02T03:02:47;12.95;;;2.33;;
71108;SDS011;59614;51.012;-1.648;2023-02-02T03:10:39;14.80;;;3.13;;
71108;SDS011;59614;51.012;-1.648;2023-02-02T03:13:10;14.75;;;3.70;;
71108;SDS011;59614;51.012;-1.648;2023-02-02T03:15:43;15.90;;;5.07;;
71108;SDS011;59614;51.012;-1.648;2023-02-02T03:18:13;16.20;;;5.45;;
71108;SDS011;59614;51.012;-1.648;2023-02-02T03:20:41;15.10;;;3.50;;
71108;SDS011;59614;51.012;-1.648;2023-02-02T03:23:09;11.80;;;2.70;;
71108;SDS011;59614;51.012;-1.648;2023-02-02T03:25:35;10.27;;;2.63;;
71108;SDS011;59614;51.012;-1.648;2023-02-02T03:28:01;10.05;;;2.85;;
71108;SDS011;59614;51.012;-1.648;2023-02-02T03:30:26;12.80;;;2.65;;
71108;SDS011;59614;51.012;-1.648;2023-02-02T03:32:52;10.50;;;2.15;;
71108;SDS011;59614;51.012;-1.648;2023-02-02T03:35:18;10.02;;;2.30;;
71108;SDS011;59614;51.012;-1.648;2023-02-02T03:37:46;16.52;;;2.58;;
71108;SDS011;59614;51.012;-1.648;2023-02-02T03:40:12;9.98;;;2.00;;
71108;SDS011;59614;51.012;-1.648;2023-02-02T03:42:38;9.13;;;2.50;;
71108;SDS011;59614;51.012;-1.648;2023-02-02T03:45:03;9.43;;;2.00;;
71108;SDS011;59614;51.012;-1.648;2023-02-02T03:47:29;10.85;;;2.47;;
71108;SDS011;59614;51.012;-1.648;2023-02-02T03:49:55;10.43;;;2.20;;
71108;SDS011;59614;51.012;-1.648;2023-02-02T03:52:21;8.85;;;2.20;;
71108;SDS011;59614;51.012;-1.648;2023-02-02T03:54:47;10.68;;;2.20;;
71108;SDS011;59614;51.012;-1.648;2023-02-02T03:57:12;10.55;;;2.13;;
71108;SDS011;59614;51.012;-1.648;2023-02-02T03:59:37;11.13;;;2.63;;
71108;SDS011;59614;51.012;-1.648;2023-02-02T04:02:03;8.98;;;1.73;;
71108;SDS011;59614;51.012;-1.648;2023-02-02T04:04:28;13.50;;;2.25;;
71108;SDS011;59614;51.012;-1.648;2023-02-02T04:06:54;13.73;;;2.25;;
71108;SDS011;59614;51.012;-1.648;2023-02-02T04:09:20;20.77;;;2.33;;
71108;SDS011;59614;51.012;-1.648;2023-02-02T04:11:45;8.93;;;1.92;;
71108;SDS011;59614;51.012;-1.648;2023-02-02T04:14:10;11.75;;;2.05;;
71108;SDS011;59614;51.012;-1.648;2023-02-02T04:16:36;8.55;;;2.00;;
71108;SDS011;59614;51.012;-1.648;2023-02-02T04:19:04;8.50;;;2.38;;
71108;SDS011;59614;51.012;-1.648;2023-02-02T04:21:30;10.88;;;1.85;;
71108;SDS011;59614;51.012;-1.648;2023-02-02T04:23:56;11.18;;;2.30;;
71108;SDS011;59614;51.012;-1.648;2023-02-02T04:26:21;11.18;;;2.30;;
71108;SDS011;59614;51.012;-1.648;2023-02-02T04:28:49;11.05;;;2.30;;
71108;SDS011;59614;51.012;-1.648;2023-02-02T04:31:16;8.35;;;1.95;;
71108;SDS011;59614;51.012;-1.648;2023-02-02T04:33:41;4.78;;;1.55;;
71108;SDS011;59614;51.012;-1.648;2023-02-02T04:36:07;8.65;;;2.25;;
71108;SDS011;59614;51.012;-1.648;2023-02-02T04:38:32;7.80;;;1.85;;
71108;SDS011;59614;51.012;-1.648;2023-02-02T04:40:58;5.68;;;1.73;;
71108;SDS011;59614;51.012;-1.648;2023-02-02T04:43:23;10.35;;;2.53;;
71108;SDS011;59614;51.012;-1.648;2023-02-02T04:45:53;7.32;;;2.10;;
71108;SDS011;59614;51.012;-1.648;2023-02-02T04:48:20;6.63;;;1.98;;
71108;SDS011;59614;51.012;-1.648;2023-02-02T04:50:45;8.82;;;2.25;;
71108;SDS011;59614;51.012;-1.648;2023-02-02T04:53:11;9.23;;;1.83;;
71108;SDS011;59614;51.012;-1.648;2023-02-02T04:55:36;9.63;;;2.17;;
71108;SDS011;59614;51.012;-1.648;2023-02-02T04:58:03;13.20;;;2.35;;
71108;SDS011;59614;51.012;-1.648;2023-02-02T05:00:29;10.43;;;2.10;;
71108;SDS011;59614;51.012;-1.648;2023-02-02T05:02:54;8.60;;;1.98;;
71108;SDS011;59614;51.012;-1.648;2023-02-02T05:05:19;8.82;;;2.00;;
71108;SDS011;59614;51.012;-1.648;2023-02-02T05:07:45;12.40;;;2.03;;
71108;SDS011;59614;51.012;-1.648;2023-02-02T05:10:11;10.80;;;2.08;;
71108;SDS011;59614;51.012;-1.648;2023-02-02T05:12:36;10.27;;;2.30;;
71108;SDS011;59614;51.012;-1.648;2023-02-02T05:15:02;8.55;;;2.08;;
71108;SDS011;59614;51.012;-1.648;2023-02-02T05:17:29;10.45;;;2.20;;
71108;SDS011;59614;51.012;-1.648;2023-02-02T05:19:55;8.50;;;1.70;;
71108;SDS011;59614;51.012;-1.648;2023-02-02T05:22:21;14.23;;;2.10;;
71108;SDS011;59614;51.012;-1.648;2023-02-02T05:24:46;12.77;;;2.22;;
71108;SDS011;59614;51.012;-1.648;2023-02-02T05:27:11;9.90;;;2.00;;
71108;SDS011;59614;51.012;-1.648;2023-02-02T05:29:37;8.85;;;2.00;;
71108;SDS011;59614;51.012;-1.648;2023-02-02T05:32:02;12.07;;;2.88;;
71108;SDS011;59614;51.012;-1.648;2023-02-02T05:34:28;11.45;;;1.80;;
71108;SDS011;59614;51.012;-1.648;2023-02-02T05:36:53;5.00;;;1.67;;
71108;SDS011;59614;51.012;-1.648;2023-02-02T05:39:19;9.98;;;1.95;;
71108;SDS011;59614;51.012;-1.648;2023-02-02T05:41:44;11.25;;;2.20;;
71108;SDS011;59614;51.012;-1.648;2023-02-02T05:44:13;6.88;;;1.98;;
71108;SDS011;59614;51.012;-1.648;2023-02-02T05:46:38;10.73;;;2.22;;
71108;SDS011;59614;51.012;-1.648;2023-02-02T05:49:05;9.13;;;2.15;;
71108;SDS011;59614;51.012;-1.648;2023-02-02T05:51:32;12.75;;;2.47;;
71108;SDS011;59614;51.012;-1.648;2023-02-02T05:54:02;11.02;;;1.90;;
71108;SDS011;59614;51.012;-1.648;2023-02-02T05:56:28;13.38;;;2.65;;
71108;SDS011;59614;51.012;-1.648;2023-02-02T05:58:53;14.63;;;3.30;;
71108;SDS011;59614;51.012;-1.648;2023-02-02T06:01:18;11.35;;;2.95;;
71108;SDS011;59614;51.012;-1.648;2023-02-02T06:03:45;15.55;;;4.70;;
71108;SDS011;59614;51.012;-1.648;2023-02-02T06:06:11;16.27;;;5.88;;
71108;SDS011;59614;51.012;-1.648;2023-02-02T06:08:37;13.50;;;5.07;;
71108;SDS011;59614;51.012;-1.648;2023-02-02T06:11:09;17.05;;;5.38;;
71108;SDS011;59614;51.012;-1.648;2023-02-02T06:13:36;20.42;;;4.50;;
71108;SDS011;59614;51.012;-1.648;2023-02-02T06:16:02;17.02;;;4.40;;
71108;SDS011;59614;51.012;-1.648;2023-02-02T06:18:27;16.45;;;3.88;;
71108;SDS011;59614;51.012;-1.648;2023-02-02T06:20:59;17.70;;;5.40;;
71108;SDS011;59614;51.012;-1.648;2023-02-02T06:23:26;13.07;;;3.85;;
71108;SDS011;59614;51.012;-1.648;2023-02-02T06:25:51;15.23;;;5.30;;
71108;SDS011;59614;51.012;-1.648;2023-02-02T06:28:17;16.30;;;6.75;;
71108;SDS011;59614;51.012;-1.648;2023-02-02T06:30:43;13.25;;;3.47;;
71108;SDS011;59614;51.012;-1.648;2023-02-02T06:33:08;21.48;;;4.70;;
71108;SDS011;59614;51.012;-1.648;2023-02-02T06:35:33;15.70;;;5.25;;
71108;SDS011;59614;51.012;-1.648;2023-02-02T06:37:59;18.60;;;5.75;;
71108;SDS011;59614;51.012;-1.648;2023-02-02T06:40:25;17.80;;;2.67;;
71108;SDS011;59614;51.012;-1.648;2023-02-02T06:42:55;10.63;;;3.50;;
71108;SDS011;59614;51.012;-1.648;2023-02-02T06:45:22;11.30;;;2.97;;
71108;SDS011;59614;51.012;-1.648;2023-02-02T06:47:47;14.52;;;3.72;;
71108;SDS011;59614;51.012;-1.648;2023-02-02T06:50:13;11.77;;;2.80;;
71108;SDS011;59614;51.012;-1.648;2023-02-02T06:52:38;14.75;;;3.55;;
71108;SDS011;59614;51.012;-1.648;2023-02-02T06:55:04;16.08;;;2.30;;
71108;SDS011;59614;51.012;-1.648;2023-02-02T06:57:29;10.70;;;2.70;;
71108;SDS011;59614;51.012;-1.648;2023-02-02T06:59:55;13.27;;;2.53;;
71108;SDS011;59614;51.012;-1.648;2023-02-02T07:02:20;14.48;;;2.70;;
71108;SDS011;59614;51.012;-1.648;2023-02-02T07:04:47;11.95;;;2.58;;
71108;SDS011;59614;51.012;-1.648;2023-02-02T07:07:13;15.10;;;3.40;;
71108;SDS011;59614;51.012;-1.648;2023-02-02T07:09:38;10.82;;;3.53;;
71108;SDS011;59614;51.012;-1.648;2023-02-02T07:12:03;16.52;;;2.90;;
71108;SDS011;59614;51.012;-1.648;2023-02-02T07:14:29;13.82;;;2.53;;
71108;SDS011;59614;51.012;-1.648;2023-02-02T07:16:55;11.98;;;3.03;;
71108;SDS011;59614;51.012;-1.648;2023-02-02T07:19:20;18.55;;;2.60;;
71108;SDS011;59614;51.012;-1.648;2023-02-02T07:21:45;15.02;;;3.03;;
71108;SDS011;59614;51.012;-1.648;2023-02-02T07:24:11;12.02;;;2.60;;
71108;SDS011;59614;51.012;-1.648;2023-02-02T07:26:36;18.80;;;2.80;;
71108;SDS011;59614;51.012;-1.648;2023-02-02T07:29:03;14.57;;;3.50;;
71108;SDS011;59614;51.012;-1.648;2023-02-02T07:31:29;17.77;;;3.15;;
71108;SDS011;59614;51.012;-1.648;2023-02-02T07:33:54;12.80;;;2.70;;
71108;SDS011;59614;51.012;-1.648;2023-02-02T07:36:20;11.10;;;3.50;;
71108;SDS011;59614;51.012;-1.648;2023-02-02T07:38:49;13.93;;;4.05;;
71108;SDS011;59614;51.012;-1.648;2023-02-02T07:41:17;11.85;;;3.60;;
71108;SDS011;59614;51.012;-1.648;2023-02-02T07:43:45;17.35;;;2.97;;
71108;SDS011;59614;51.012;-1.648;2023-02-02T07:46:12;13.25;;;3.65;;
71108;SDS011;59614;51.012;-1.648;2023-02-02T07:48:38;16.08;;;3.53;;
71108;SDS011;59614;51.012;-1.648;2023-02-02T07:51:05;24.60;;;4.03;;
71108;SDS011;59614;51.012;-1.648;2023-02-02T07:53:32;12.95;;;2.78;;
71108;SDS011;59614;51.012;-1.648;2023-02-02T07:56:06;22.25;;;4.30;;
71108;SDS011;59614;51.012;-1.648;2023-02-02T07:58:41;10.68;;;2.83;;
71108;SDS011;59614;51.012;-1.648;2023-02-02T08:01:08;15.18;;;3.33;;
71108;SDS011;59614;51.012;-1.648;2023-02-02T08:03:34;16.50;;;3.50;;
71108;SDS011;59614;51.012;-1.648;2023-02-02T08:06:00;20.48;;;4.13;;
71108;SDS011;59614;51.012;-1.648;2023-02-02T08:08:26;16.70;;;4.43;;
71108;SDS011;59614;51.012;-1.648;2023-02-02T08:10:51;14.68;;;3.00;;
71108;SDS011;59614;51.012;-1.648;2023-02-02T08:13:18;13.75;;;3.22;;
71108;SDS011;59614;51.012;-1.648;2023-02-02T08:15:44;14.60;;;4.00;;
71108;SDS011;59614;51.012;-1.648;2023-02-02T08:18:10;13.05;;;3.38;;
71108;SDS011;59614;51.012;-1.648;2023-02-02T08:20:35;18.55;;;4.13;;
71108;SDS011;59614;51.012;-1.648;2023-02-02T08:23:01;15.50;;;3.63;;
71108;SDS011;59614;51.012;-1.648;2023-02-02T08:25:27;8.05;;;2.42;;
71108;SDS011;59614;51.012;-1.648;2023-02-02T08:27:53;14.95;;;3.70;;
71108;SDS011;59614;51.012;-1.648;2023-02-02T08:30:19;15.40;;;3.47;;
71108;SDS011;59614;51.012;-1.648;2023-02-02T08:32:45;12.60;;;2.63;;
71108;SDS011;59614;51.012;-1.648;2023-02-02T08:35:10;12.65;;;3.70;;
71108;SDS011;59614;51.012;-1.648;2023-02-02T08:37:36;10.57;;;2.92;;
71108;SDS011;59614;51.012;-1.648;2023-02-02T08:40:01;13.23;;;2.55;;
71108;SDS011;59614;51.012;-1.648;2023-02-02T08:42:27;16.02;;;2.50;;
71108;SDS011;59614;51.012;-1.648;2023-02-02T08:44:52;12.15;;;2.70;;
71108;SDS011;59614;51.012;-1.648;2023-02-02T08:47:18;12.45;;;2.90;;
71108;SDS011;59614;51.012;-1.648;2023-02-02T08:49:43;14.32;;;3.88;;
71108;SDS011;59614;51.012;-1.648;2023-02-02T08:52:09;12.18;;;2.58;;
71108;SDS011;59614;51.012;-1.648;2023-02-02T08:54:34;10.52;;;3.08;;
71108;SDS011;59614;51.012;-1.648;2023-02-02T08:57:00;9.88;;;2.85;;
71108;SDS011;59614;51.012;-1.648;2023-02-02T08:59:25;13.30;;;3.17;;
71108;SDS011;59614;51.012;-1.648;2023-02-02T09:01:50;14.50;;;3.35;;
71108;SDS011;59614;51.012;-1.648;2023-02-02T09:04:16;14.48;;;4.40;;
71108;SDS011;59614;51.012;-1.648;2023-02-02T09:06:42;14.05;;;3.10;;
71108;SDS011;59614;51.012;-1.648;2023-02-02T09:09:09;11.65;;;2.65;;
71108;SDS011;59614;51.012;-1.648;2023-02-02T09:11:36;11.23;;;3.15;;
71108;SDS011;59614;51.012;-1.648;2023-02-02T09:14:03;9.82;;;4.05;;
71108;SDS011;59614;51.012;-1.648;2023-02-02T09:16:30;8.52;;;2.88;;
71108;SDS011;59614;51.012;-1.648;2023-02-02T09:18:57;9.27;;;2.67;;
71108;SDS011;59614;51.012;-1.648;2023-02-02T09:21:23;9.90;;;2.30;;
71108;SDS011;59614;51.012;-1.648;2023-02-02T09:23:49;15.95;;;2.95;;
71108;SDS011;59614;51.012;-1.648;2023-02-02T09:28:47;13.10;;;2.40;;
71108;SDS011;59614;51.012;-1.648;2023-02-02T09:31:14;11.57;;;2.97;;
71108;SDS011;59614;51.012;-1.648;2023-02-02T09:33:40;7.25;;;2.40;;
71108;SDS011;59614;51.012;-1.648;2023-02-02T09:36:14;11.38;;;2.78;;
71108;SDS011;59614;51.012;-1.648;2023-02-02T09:38:47;13.60;;;2.92;;
71108;SDS011;59614;51.012;-1.648;2023-02-02T09:41:18;12.02;;;2.53;;
71108;SDS011;59614;51.012;-1.648;2023-02-02T09:46:30;9.30;;;2.88;;
71108;SDS011;59614;51.012;-1.648;2023-02-02T09:49:01;8.50;;;3.13;;
71108;SDS011;59614;51.012;-1.648;2023-02-02T09:51:40;10.50;;;3.22;;
71108;SDS011;59614;51.012;-1.648;2023-02-02T09:54:12;9.02;;;1.85;;
71108;SDS011;59614;51.012;-1.648;2023-02-02T09:56:44;8.30;;;2.50;;
71108;SDS011;59614;51.012;-1.648;2023-02-02T09:59:20;7.25;;;2.50;;
71108;SDS011;59614;51.012;-1.648;2023-02-02T10:01:51;7.65;;;2.20;;
71108;SDS011;59614;51.012;-1.648;2023-02-02T10:07:00;11.82;;;2.42;;
71108;SDS011;59614;51.012;-1.648;2023-02-02T10:09:38;7.28;;;2.70;;
71108;SDS011;59614;51.012;-1.648;2023-02-02T10:15:15;8.45;;;2.05;;
71108;SDS011;59614;51.012;-1.648;2023-02-02T10:17:51;11.93;;;2.47;;
71108;SDS011;59614;51.012;-1.648;2023-02-02T10:23:02;7.47;;;1.80;;
71108;SDS011;59614;51.012;-1.648;2023-02-02T10:25:45;5.03;;;1.70;;
71108;SDS011;59614;51.012;-1.648;2023-02-02T10:28:18;6.57;;;2.42;;
71108;SDS011;59614;51.012;-1.648;2023-02-02T10:30:54;11.75;;;3.58;;
71108;SDS011;59614;51.012;-1.648;2023-02-02T10:33:37;11.18;;;4.95;;
71108;SDS011;59614;51.012;-1.648;2023-02-02T10:36:07;11.52;;;3.20;;
71108;SDS011;59614;51.012;-1.648;2023-02-02T10:38:40;19.10;;;7.35;;
71108;SDS011;59614;51.012;-1.648;2023-02-02T10:44:15;15.27;;;6.00;;
71108;SDS011;59614;51.012;-1.648;2023-02-02T10:46:45;14.43;;;5.90;;
71108;SDS011;59614;51.012;-1.648;2023-02-02T10:52:03;6.68;;;2.10;;
71108;SDS011;59614;51.012;-1.648;2023-02-02T10:57:32;4.43;;;1.88;;
71108;SDS011;59614;51.012;-1.648;2023-02-02T11:00:14;6.20;;;1.90;;
71108;SDS011;59614;51.012;-1.648;2023-02-02T11:02:48;5.13;;;1.77;;
71108;SDS011;59614;51.012;-1.648;2023-02-02T11:05:25;12.57;;;4.97;;
71108;SDS011;59614;51.012;-1.648;2023-02-02T11:08:15;11.82;;;4.68;;
71108;SDS011;59614;51.012;-1.648;2023-02-02T11:10:46;8.27;;;3.05;;
71108;SDS011;59614;51.012;-1.648;2023-02-02T11:13:36;8.30;;;3.40;;
71108;SDS011;59614;51.012;-1.648;2023-02-02T11:16:37;7.63;;;2.47;;
71108;SDS011;59614;51.012;-1.648;2023-02-02T11:18:56;9.23;;;3.25;;
71108;SDS011;59614;51.012;-1.648;2023-02-02T11:23:58;16.65;;;5.28;;
71108;SDS011;59614;51.012;-1.648;2023-02-02T11:26:23;54.13;;;24.17;;
71108;SDS011;59614;51.012;-1.648;2023-02-02T11:28:50;47.35;;;22.88;;
71108;SDS011;59614;51.012;-1.648;2023-02-02T11:31:29;51.42;;;26.50;;
71108;SDS011;59614;51.012;-1.648;2023-02-02T11:34:11;52.17;;;28.13;;
71108;SDS011;59614;51.012;-1.648;2023-02-02T11:36:39;21.70;;;13.95;;
71108;SDS011;59614;51.012;-1.648;2023-02-02T11:41:59;11.82;;;6.60;;
71108;SDS011;59614;51.012;-1.648;2023-02-02T11:44:28;8.35;;;2.85;;
71108;SDS011;59614;51.012;-1.648;2023-02-02T11:46:56;6.10;;;2.00;;
71108;SDS011;59614;51.012;-1.648;2023-02-02T11:52:03;7.10;;;2.17;;
71108;SDS011;59614;51.012;-1.648;2023-02-02T11:57:04;2.50;;;1.73;;
71108;SDS011;59614;51.012;-1.648;2023-02-02T11:59:36;7.93;;;2.17;;
71108;SDS011;59614;51.012;-1.648;2023-02-02T12:04:34;5.30;;;1.65;;
71108;SDS011;59614;51.012;-1.648;2023-02-02T12:07:00;6.45;;;1.70;;
71108;SDS011;59614;51.012;-1.648;2023-02-02T12:09:25;4.00;;;1.55;;
71108;SDS011;59614;51.012;-1.648;2023-02-02T12:14:53;6.70;;;2.17;;
71108;SDS011;59614;51.012;-1.648;2023-02-02T12:28:30;9.75;;;2.58;;
71108;SDS011;59614;51.012;-1.648;2023-02-02T12:31:50;4.18;;;1.90;;
71108;SDS011;59614;51.012;-1.648;2023-02-02T12:34:31;4.82;;;1.73;;
71108;SDS011;59614;51.012;-1.648;2023-02-02T12:45:48;5.35;;;1.38;;
71108;SDS011;59614;51.012;-1.648;2023-02-02T12:51:08;6.53;;;1.70;;
71108;SDS011;59614;51.012;-1.648;2023-02-02T12:53:50;3.83;;;1.42;;
71108;SDS011;59614;51.012;-1.648;2023-02-02T13:07:34;6.07;;;1.23;;
71108;SDS011;59614;51.012;-1.648;2023-02-02T13:12:59;5.03;;;1.55;;
71108;SDS011;59614;51.012;-1.648;2023-02-02T13:15:30;4.85;;;1.55;;
71108;SDS011;59614;51.012;-1.648;2023-02-02T13:18:00;5.82;;;1.50;;
71108;SDS011;59614;51.012;-1.648;2023-02-02T13:23:29;7.57;;;2.40;;
71108;SDS011;59614;51.012;-1.648;2023-02-02T13:34:52;5.00;;;2.10;;
71108;SDS011;59614;51.012;-1.648;2023-02-02T13:37:35;7.25;;;1.80;;
71108;SDS011;59614;51.012;-1.648;2023-02-02T13:51:20;4.25;;;1.13;;
71108;SDS011;59614;51.012;-1.648;2023-02-02T13:54:09;2.42;;;1.00;;
71108;SDS011;59614;51.012;-1.648;2023-02-02T14:02:03;3.97;;;1.42;;
71108;SDS011;59614;51.012;-1.648;2023-02-02T14:04:31;2.60;;;1.50;;
71108;SDS011;59614;51.012;-1.648;2023-02-02T14:06:59;3.90;;;1.80;;
71108;SDS011;59614;51.012;-1.648;2023-02-02T14:09:29;3.85;;;1.63;;
71108;SDS011;59614;51.012;-1.648;2023-02-02T14:11:59;4.47;;;1.52;;
71108;SDS011;59614;51.012;-1.648;2023-02-02T14:14:27;4.72;;;1.80;;
71108;SDS011;59614;51.012;-1.648;2023-02-02T14:16:59;4.85;;;1.92;;
71108;SDS011;59614;51.012;-1.648;2023-02-02T14:19:55;4.80;;;1.88;;
71108;SDS011;59614;51.012;-1.648;2023-02-02T14:30:26;5.90;;;2.63;;
71108;SDS011;59614;51.012;-1.648;2023-02-02T14:32:52;15.20;;;5.90;;
71108;SDS011;59614;51.012;-1.648;2023-02-02T14:51:20;2.15;;;1.20;;
71108;SDS011;59614;51.012;-1.648;2023-02-02T14:54:00;3.50;;;1.50;;
71108;SDS011;59614;51.012;-1.648;2023-02-02T14:56:38;3.45;;;1.30;;
71108;SDS011;59614;51.012;-1.648;2023-02-02T14:59:19;5.35;;;1.10;;
71108;SDS011;59614;51.012;-1.648;2023-02-02T15:04:33;2.88;;;1.25;;
71108;SDS011;59614;51.012;-1.648;2023-02-02T15:07:34;4.30;;;1.02;;
71108;SDS011;59614;51.012;-1.648;2023-02-02T15:09:48;3.17;;;1.42;;
71108;SDS011;59614;51.012;-1.648;2023-02-02T15:12:15;4.55;;;1.55;;
71108;SDS011;59614;51.012;-1.648;2023-02-02T15:14:47;2.15;;;1.15;;
71108;SDS011;59614;51.012;-1.648;2023-02-02T15:20:15;2.95;;;1.05;;
71108;SDS011;59614;51.012;-1.648;2023-02-02T15:25:43;4.95;;;1.30;;
71108;SDS011;59614;51.012;-1.648;2023-02-02T15:30:48;6.55;;;1.70;;
71108;SDS011;59614;51.012;-1.648;2023-02-02T15:33:22;5.25;;;1.92;;
71108;SDS011;59614;51.012;-1.648;2023-02-02T15:35:55;5.18;;;2.53;;
71108;SDS011;59614;51.012;-1.648;2023-02-02T15:38:26;9.73;;;4.90;;
71108;SDS011;59614;51.012;-1.648;2023-02-02T15:41:01;7.88;;;3.08;;
71108;SDS011;59614;51.012;-1.648;2023-02-02T15:43:30;10.63;;;5.15;;
71108;SDS011;59614;51.012;-1.648;2023-02-02T15:46:03;8.63;;;2.20;;
71108;SDS011;59614;51.012;-1.648;2023-02-02T15:48:33;3.92;;;2.00;;
71108;SDS011;59614;51.012;-1.648;2023-02-02T15:51:04;11.93;;;1.92;;
71108;SDS011;59614;51.012;-1.648;2023-02-02T15:59:13;4.32;;;2.00;;
71108;SDS011;59614;51.012;-1.648;2023-02-02T16:01:45;7.13;;;2.35;;
71108;SDS011;59614;51.012;-1.648;2023-02-02T16:04:18;8.07;;;2.30;;
71108;SDS011;59614;51.012;-1.648;2023-02-02T16:06:49;4.55;;;1.60;;
71108;SDS011;59614;51.012;-1.648;2023-02-02T16:09:25;4.75;;;1.73;;
71108;SDS011;59614;51.012;-1.648;2023-02-02T16:11:53;6.60;;;1.95;;
71108;SDS011;59614;51.012;-1.648;2023-02-02T16:14:19;4.90;;;1.83;;
71108;SDS011;59614;51.012;-1.648;2023-02-02T16:16:45;3.97;;;1.80;;
71108;SDS011;59614;51.012;-1.648;2023-02-02T16:21:50;5.90;;;2.35;;
71108;SDS011;59614;51.012;-1.648;2023-02-02T16:24:29;5.50;;;2.03;;
71108;SDS011;59614;51.012;-1.648;2023-02-02T16:26:58;5.22;;;2.10;;
71108;SDS011;59614;51.012;-1.648;2023-02-02T16:29:26;6.15;;;2.30;;
71108;SDS011;59614;51.012;-1.648;2023-02-02T16:31:53;5.05;;;2.13;;
71108;SDS011;59614;51.012;-1.648;2023-02-02T16:39:49;15.25;;;5.22;;
71108;SDS011;59614;51.012;-1.648;2023-02-02T16:44:58;6.22;;;1.70;;
71108;SDS011;59614;51.012;-1.648;2023-02-02T16:49:53;6.65;;;2.78;;
71108;SDS011;59614;51.012;-1.648;2023-02-02T16:52:31;8.60;;;2.55;;
71108;SDS011;59614;51.012;-1.648;2023-02-02T16:54:58;4.22;;;2.00;;
71108;SDS011;59614;51.012;-1.648;2023-02-02T16:57:28;8.25;;;2.10;;
71108;SDS011;59614;51.012;-1.648;2023-02-02T16:59:56;6.50;;;1.83;;
71108;SDS011;59614;51.012;-1.648;2023-02-02T17:05:01;10.27;;;2.78;;
71108;SDS011;59614;51.012;-1.648;2023-02-02T17:07:30;9.52;;;2.67;;
71108;SDS011;59614;51.012;-1.648;2023-02-02T17:12:42;4.68;;;2.13;;
71108;SDS011;59614;51.012;-1.648;2023-02-02T17:17:41;7.43;;;2.67;;
71108;SDS011;59614;51.012;-1.648;2023-02-02T17:20:12;6.90;;;1.80;;
71108;SDS011;59614;51.012;-1.648;2023-02-02T17:22:38;7.45;;;2.25;;
71108;SDS011;59614;51.012;-1.648;2023-02-02T17:25:09;6.40;;;2.40;;
71108;SDS011;59614;51.012;-1.648;2023-02-02T17:27:39;8.13;;;2.40;;
71108;SDS011;59614;51.012;-1.648;2023-02-02T17:30:05;8.35;;;3.15;;
71108;SDS011;59614;51.012;-1.648;2023-02-02T17:32:31;5.05;;;2.50;;
71108;SDS011;59614;51.012;-1.648;2023-02-02T17:34:56;11.27;;;5.30;;
71108;SDS011;59614;51.012;-1.648;2023-02-02T17:37:22;21.02;;;9.15;;
71108;SDS011;59614;51.012;-1.648;2023-02-02T17:39:47;38.65;;;14.25;;
71108;SDS011;59614;51.012;-1.648;2023-02-02T17:42:24;24.77;;;9.38;;
71108;SDS011;59614;51.012;-1.648;2023-02-02T17:44:51;18.10;;;6.88;;
71108;SDS011;59614;51.012;-1.648;2023-02-02T17:47:16;15.02;;;6.07;;
71108;SDS011;59614;51.012;-1.648;2023-02-02T17:49:42;11.18;;;5.05;;
71108;SDS011;59614;51.012;-1.648;2023-02-02T17:52:08;16.73;;;7.55;;
71108;SDS011;59614;51.012;-1.648;2023-02-02T17:54:34;8.30;;;3.20;;